メインページ
METAR-TAF:

METAR-TAF

空港 :

エドモントンNamao, アルバータ州, カナダ

緯度: 53-40N, 経度: 113-28W, 海抜: 688m

現時点の気象観測

当レポートは37分前の09:00(UTC)に作成
北/北西の風 6kt
気温 -1°C
湿度 100%
気圧 1016 hPa
視程: 14.5km
晴天

METAR: CYED 140900Z AUTO 34006KT 9SM CLR M01/M01 A3001 RMK SLP190

時間: 02:37 (09:37 UTC)

予報

当レポートは4時間7分前の05:30(UTC)に作成
予報は14日の 06時(UTC)から 14日の 18時(UTC)まで有効
西/南西の風 5kt
視程: 10km
高度5000ftの雲は散在している
14日の 06時(UTC)から 14日の 08時(UTC)まで徐々に
変向風 3kt
14日の 0900時(UTC)から
変向風 3kt
視程: 10km
高度18000ftの雲はほとんどない
確率 30%
14日の 10時(UTC)から 14日の 13時(UTC)まで
視程: 0.8km
着氷性の霧
14日の 1300時(UTC)から
変向風 3kt
視程: 10km
高度500ftの雲は散在している
14日の 13時(UTC)から 14日の 18時(UTC)まで一時的に
視程: 3.2km
高度500ftの千切れ雲あり
確率 30%
14日の 13時(UTC)から 14日の 16時(UTC)まで
視程: 0.8km
着氷性の霧

TAF: CYED 140530Z 1406/1418 25005KT P6SM SCT050 BECMG 1406/1408 VRB03KT FM140900 VRB03KT P6SM FEW180 PROB30 1410/1413 1/2SM FZFG FM141300 VRB03KT P6SM SCT005 TEMPO 1413/1418 2SM BR BKN005 PROB30 1413/1416 1/2SM FZFG RMK FCST BASED ON AUTO OBS. NXT FCST BY 141200Z

4,000以上の空港の気象観測と天気予報(METAR報とTAF報)

利用可能な観測所は地図上に黄色い丸と赤い丸で示す。

丸の上にカーソルを重ねると観測所名を参照できる。

次にクリックすると気象観測と天気予報を参照できる。

マップの切り替え:黒色「×」印の緑ボタンをクリックして拡大、「-」印の緑ボタンをクリックして縮小、緑色の三角印をクリックして隣りの地図に切り替え


METAR-TAF: